Latest Coastal Weather Observations for Tewantin

IDQ60701

Issued at 6:03 am EST Monday 23 May 2022 (issued every 10 minutes, with the page automatically refreshed every 10 minutes)

About coastal observations | Map of coastal stations | Coastal observations for QLD | Marine services | Other Formats
Station Details ID: 040908 Name: TEWANTIN RSL PARK Lat: -26.39 Lon: 153.04 Height: 6.4 m
Data from the previous 72 hours. | See also: Recent months at Tewantin
Date/Time
EST
Wind Sea
Height
m
Swell Vis
km
Cloud Weather Temp
°C
Press
MSL
hPa
Rain since
9am
mm
Dir  Spd
kts
Gust
kts
Height
m
Period
s
Dir
23/06:00am S 7 10 - - - - - - - 16.7 1019.7 38.8
23/05:30am S 10 14 - - - - - - - 16.8 1019.5 37.2
23/05:00am S 9 12 - - - - - - - 16.8 1019.0 36.8
23/04:30am SSE 7 11 - - - - - - - 16.6 1018.8 36.8
23/04:00am SSE 6 11 - - - - - - - 16.5 1018.8 36.8
23/03:30am S 8 12 - - - - - - - 16.7 1018.9 36.4
23/03:00am S 8 14 - - - - - - Rain 16.7 1018.7 35.8
23/02:30am S 8 11 - - - - - - - 16.5 1018.6 35.4
23/02:00am S 8 13 - - - - - - - 16.6 1018.7 33.6
23/01:30am S 9 13 - - - - - - - 16.7 1018.7 33.6
23/01:00am S 10 17 - - - - - - - 17.0 1019.0 33.6
23/12:30am S 11 15 - - - - - - - 17.2 1019.1 33.6
23/12:00am S 8 11 - - - - - - Recent precip. 17.1 1019.0 33.6
 
Date/Time
EST
Wind Sea
Height
m
Swell Vis
km
Cloud Weather Temp
°C
Press
MSL
hPa
Rain since
9am
mm
Dir  Spd
kts
Gust
kts
Height
m
Period
s
Dir
22/11:30pm SSE 6 9 - - - - - - - 17.0 1019.4 32.6
22/11:00pm S 9 16 - - - - - - - 17.4 1019.3 32.2
22/10:30pm S 9 15 - - - - - - - 17.3 1019.4 32.2
22/10:00pm S 9 14 - - - - - - - 17.3 1019.8 32.2
22/09:30pm S 10 15 - - - - - - - 17.5 1019.8 32.0
22/09:00pm S 11 16 - - - - - - Rain 17.4 1019.7 32.0
22/08:30pm S 9 14 - - - - - - - 17.5 1019.8 31.4
22/08:00pm S 10 15 - - - - - - - 17.5 1019.5 31.4
22/07:30pm S 8 12 - - - - - - - 17.7 1019.3 31.4
22/07:00pm S 7 11 - - - - - - - 17.5 1018.9 31.4
22/06:30pm S 7 11 - - - - - - - 17.4 1018.4 30.6
22/06:00pm S 7 9 - - - - - - Recent precip. 17.1 1018.1 30.6
22/05:30pm SE 3 5 - - - - - - - 17.1 1018.1 30.6
22/05:00pm SSE 10 13 - - - - - - - 17.4 1018.2 30.2
22/04:30pm SSE 10 19 - - - - - - - 17.4 1018.2 29.2
22/04:00pm SSE 9 16 - - - - - - - 19.1 1017.5 28.0
22/03:30pm SSE 9 14 - - - - - - - 18.5 1017.6 28.0
22/03:00pm SSE 9 15 - - - - - - Rain 18.3 1017.6 28.0
22/02:30pm SSE 10 18 - - - - - - - 18.7 1017.5 27.4
22/02:00pm SSE 8 13 - - - - - - - 18.9 1017.5 27.2
22/01:30pm SSE 10 17 - - - - - - - 18.7 1017.6 27.2
22/01:00pm SSE 8 14 - - - - - - - 18.6 1017.7 27.0
22/12:30pm SSE 9 13 - - - - - - - 18.4 1017.8 24.0
22/12:00pm SSE 11 20 - - - - - - Rain 18.6 1018.1 18.2
22/11:30am SSE 9 17 - - - - - - - 18.8 1018.5 12.6
22/11:00am SE 8 16 - - - - - - - 18.7 1018.8 7.2
22/10:30am S 7 11 - - - - - - - 20.0 1019.0 0.8
22/10:00am SE 4 7 - - - - - - - 19.7 1019.3 0.8
22/09:30am SSE 6 10 - - - - - - - 19.3 1019.4 0.6
22/09:00am S 9 13 - - - - - - Rain 19.0 1019.4 61.4
22/08:30am SSE 7 11 - - - - - - - 18.5 1019.4 61.2
22/08:00am S 8 13 - - - - - - - 18.3 1019.2 60.4
22/07:30am S 7 10 - - - - - - - 18.1 1019.0 59.6
22/07:00am S 8 11 - - - - - - - 17.6 1018.8 59.0
22/06:30am S 6 8 - - - - - - - 17.4 1018.5 58.4
22/06:00am S 8 11 - - - - - - Rain 17.5 1018.3 58.0
22/05:30am S 9 12 - - - - - - - 17.6 1018.0 57.6
22/05:00am S 7 11 - - - - - - - 17.6 1018.0 57.2
22/04:30am S 8 12 - - - - - - - 17.7 1018.0 56.8
22/04:00am S 7 11 - - - - - - - 17.8 1018.1 56.6
22/03:30am SSE 7 13 - - - - - - - 18.1 1018.1 56.4
22/03:00am S 6 10 - - - - - - - 17.9 1018.4 56.4
22/02:30am S 7 9 - - - - - - - 18.8 1018.8 56.4
22/02:00am ESE 8 13 - - - - - - - 18.7 1018.5 56.4
22/01:30am SE 5 10 - - - - - - - 17.9 1019.7 56.4
22/01:00am S 9 13 - - - - - - - 17.8 1020.5 56.2
22/12:30am S 7 11 - - - - - - - 17.8 1021.1 56.2
22/12:00am S 8 11 - - - - - - Recent precip. 17.9 1020.9 55.8
 
Date/Time
EST
Wind Sea
Height
m
Swell Vis
km
Cloud Weather Temp
°C
Press
MSL
hPa
Rain since
9am
mm
Dir  Spd
kts
Gust
kts
Height
m
Period
s
Dir
21/11:30pm S 7 11 - - - - - - - 17.9 1021.1 55.4
21/11:00pm S 9 12 - - - - - - - 17.8 1021.2 55.4
21/10:30pm S 6 9 - - - - - - - 18.2 1021.3 55.0
21/10:00pm S 6 7 - - - - - - - 17.8 1021.4 54.8
21/09:30pm ESE 12 18 - - - - - - - 17.5 1021.7 54.6
21/09:00pm SSE 8 15 - - - - - - Rain 17.7 1021.6 53.2
21/08:30pm S 8 12 - - - - - - - 17.2 1021.8 51.6
21/08:00pm S 7 13 - - - - - - - 17.2 1021.8 50.8
21/07:30pm SSE 8 16 - - - - - - - 16.9 1021.5 49.4
21/07:00pm SE 6 10 - - - - - - - 16.8 1021.7 48.0
21/06:30pm SSW 5 8 - - - - - - - 16.7 1022.7 46.2
21/06:00pm S 6 8 - - - - - - Rain 16.8 1022.0 45.2
21/05:30pm S 5 9 - - - - - - - 17.1 1022.6 43.0
21/05:00pm S 7 10 - - - - - - - 17.1 1021.5 42.2
21/04:30pm SSE 8 15 - - - - - - - 17.0 1021.5 41.4
21/04:00pm S 8 13 - - - - - - - 17.0 1021.7 40.2
21/03:30pm SSE 9 16 - - - - - - - 17.6 1021.7 38.2
21/03:00pm SSE 7 13 - - - - - - Rain 18.1 1021.1 36.0
21/02:30pm SE 8 13 - - - - - - - 18.5 1020.8 35.0
21/02:00pm ESE 8 15 - - - - - - - 18.2 1020.8 34.4
21/01:30pm ESE 13 21 - - - - - - - 18.2 1021.1 32.8
21/01:00pm ESE 9 15 - - - - - - - 18.3 1021.2 31.4
21/12:30pm SE 10 17 - - - - - - - 18.2 1021.7 29.0
21/12:00pm S 6 11 - - - - - - Rain 17.7 1022.0 23.4
21/11:30am S 6 9 - - - - - - - 18.0 1022.5 14.0
21/11:00am SSE 2 6 - - - - - - - 18.0 1022.8 9.6
21/10:30am SSE 4 11 - - - - - - - 17.7 1023.3 7.8
21/10:00am SSW 7 11 - - - - - - - 17.7 1023.0 2.4
21/09:30am S 6 9 - - - - - - - 17.6 1023.1 1.8
21/09:00am S 6 8 - - - - - - Recent precip. 17.7 1023.3 20.8
21/08:30am S 9 12 - - - - - - - 17.1 1023.7 20.0
21/08:00am SSW 5 9 - - - - - - - 16.8 1024.0 18.8
21/07:30am SSW 5 6 - - - - - - - 16.9 1023.9 17.6
21/07:00am S 7 10 - - - - - - - 16.6 1024.0 16.4
21/06:30am SW 5 9 - - - - - - - 16.9 1023.8 11.2
21/06:00am SE 7 11 - - - - - - Rain 18.4 1022.8 10.6
21/05:30am S 7 13 - - - - - - - 17.7 1022.2 10.4
21/05:00am S 7 9 - - - - - - - 17.1 1022.3 10.2
21/04:30am S 7 11 - - - - - - - 16.9 1022.3 10.2
21/04:00am S 7 10 - - - - - - - 17.0 1022.7 10.0
21/03:30am SSE 7 11 - - - - - - - 17.4 1022.7 9.2
21/03:00am SSE 6 12 - - - - - - Rain 18.0 1022.8 8.4
21/02:30am SE 6 10 - - - - - - - 18.6 1023.1 7.8
21/02:00am ESE 11 17 - - - - - - - 19.1 1022.8 7.6
21/01:30am SE 8 15 - - - - - - - 19.4 1023.4 7.2
21/01:00am SSE 7 11 - - - - - - - 18.6 1023.6 7.2
21/12:30am SSE 8 11 - - - - - - - 18.9 1023.8 7.2
21/12:00am SE 6 11 - - - - - - Rain 18.0 1023.7 7.2
 
Date/Time
EST
Wind Sea
Height
m
Swell Vis
km
Cloud Weather Temp
°C
Press
MSL
hPa
Rain since
9am
mm
Dir  Spd
kts
Gust
kts
Height
m
Period
s
Dir
20/11:30pm SE 9 14 - - - - - - - 18.3 1024.0 6.8
20/11:00pm SE 8 13 - - - - - - - 18.2 1024.8 6.2
20/10:30pm SSE 7 13 - - - - - - - 18.4 1025.4 5.0
20/10:00pm SE 7 12 - - - - - - - 18.8 1025.3 4.4
20/09:30pm SE 11 20 - - - - - - - 21.1 1024.7 3.8
20/09:00pm SE 10 17 - - - - - - - 20.6 1024.4 3.8
20/08:30pm SE 11 18 - - - - - - - 20.4 1024.2 3.8
20/08:00pm SSE 10 20 - - - - - - - 19.1 1024.3 3.8
20/07:30pm SE 8 15 - - - - - - - 19.4 1024.0 3.6
20/07:00pm S 10 15 - - - - - - - 18.2 1023.9 3.0
20/06:30pm S 7 13 - - - - - - - 19.3 1023.6 1.6
20/06:00pm SE 9 16 - - - - - - Recent precip. 20.3 1023.0 1.6
20/05:30pm SE 9 18 - - - - - - - 19.7 1023.1 1.6
20/05:00pm ESE 10 15 - - - - - - - 19.4 1023.3 1.4
20/04:44pm SE 9 22 - - - - - - - 19.5 1023.4 0.8
20/04:30pm SSE 7 13 - - - - - - - 20.4 1023.1 0.0
20/04:00pm ESE 10 16 - - - - - - - 21.4 1022.8 0.0
20/03:30pm ESE 11 17 - - - - - - - 21.4 1022.6 0.0
20/03:00pm ESE 11 16 - - - - - - - 22.0 1022.7 0.0
20/02:30pm ESE 11 18 - - - - - - - 22.2 1022.4 0.0
20/02:00pm SE 11 17 - - - - - - - 22.0 1022.1 0.0
20/01:30pm ESE 11 19 - - - - - - - 22.1 1022.2 0.0
20/01:00pm SSE 9 17 - - - - - - - 22.0 1022.4 0.0
20/12:30pm ESE 13 21 - - - - - - - 22.1 1022.8 0.0
20/12:00pm SE 12 19 - - - - - - - 22.2 1023.1 0.0
20/11:30am SE 9 15 - - - - - - - 22.1 1023.5 0.0
20/11:00am SE 12 18 - - - - - - - 22.2 1023.7 0.0
20/10:30am SE 13 20 - - - - - - - 22.2 1024.0 0.0
20/10:00am SE 11 20 - - - - - - - 22.5 1024.1 0.0
20/09:30am SE 9 16 - - - - - - - 22.1 1023.9 0.0
20/09:00am SE 10 18 - - - - - - - 22.0 1024.1 0.0
20/08:30am SSE 9 17 - - - - - - - 21.9 1023.9 0.0
20/08:00am SE 9 15 - - - - - - - 22.0 1023.7 0.0
20/07:30am SE 9 15 - - - - - - - 21.7 1023.6 0.0
20/07:00am SE 8 18 - - - - - - - 21.5 1023.2 0.0
20/06:30am SE 10 17 - - - - - - - 21.6 1022.9 0.0

Other formats

Comma delimited format used in spreadsheet applications
http://www.bom.gov.au/fwo/IDQ60701/IDQ60701.94570.axf

JavaScript Object Notation format (JSON) in row-major order
http://www.bom.gov.au/fwo/IDQ60701/IDQ60701.94570.json

Data quality

Most of these data are generated automatically and are frequently updated. Quality checks on data are not normally performed. It is possible for incorrect values to appear. Refer to information at About Latest Weather Observations and please check the disclaimer before using these data.